Time;durP1;ratioP1;P1;durP2;ratioP2;P2;SDS_P1;SDS_P2;PMS_P1;PMS_P2;Temp;Humidity;BMP_temperature;BMP_pressure;BME280_temperature;BME280_humidity;BME280_pressure;Samples;Min_cycle;Max_cycle;Signal;HPM_P1;HPM_P2
2021/03/03 00:01:33;;;;;;;15.97;9.30;;;;;;;;;;5079562;28;20179;-76
2021/03/03 00:03:59;;;;;;;18.20;9.90;;;;;;;;;;5059612;28;20204;-74
2021/03/03 00:06:25;;;;;;;16.03;9.73;;;;;;;;;;5080966;28;20211;-74
2021/03/03 00:08:51;;;;;;;14.53;9.47;;;;;;;;;;5076582;28;20177;-74
2021/03/03 00:11:17;;;;;;;17.23;9.43;;;;;;;;;;5077689;28;20303;-75
2021/03/03 00:13:43;;;;;;;15.30;9.63;;;;;;;;;;5078076;28;20180;-77
2021/03/03 00:16:09;;;;;;;15.07;10.03;;;;;;;;;;5076409;28;20206;-77
2021/03/03 00:18:35;;;;;;;14.40;9.63;;;;;;;;;;5077977;28;20233;-75
2021/03/03 00:21:01;;;;;;;16.73;9.60;;;;;;;;;;5059775;28;20663;-76
2021/03/03 00:23:27;;;;;;;14.93;9.37;;;;;;;;;;5075513;28;20184;-75
2021/03/03 00:25:53;;;;;;;18.10;9.80;;;;;;;;;;5075727;28;20175;-76
2021/03/03 00:28:19;;;;;;;16.00;10.00;;;;;;;;;;5076520;28;20263;-76
2021/03/03 00:30:45;;;;;;;17.37;10.63;;;;;;;;;;5075779;28;20231;-76
2021/03/03 00:33:11;;;;;;;16.17;10.00;;;;;;;;;;5058429;28;20180;-76
2021/03/03 00:35:37;;;;;;;17.07;10.00;;;;;;;;;;5076322;28;20180;-75
2021/03/03 00:38:03;;;;;;;15.73;10.07;;;;;;;;;;5074996;28;20219;-76
2021/03/03 00:40:29;;;;;;;15.00;9.67;;;;;;;;;;5076836;28;20176;-75
2021/03/03 00:42:55;;;;;;;15.87;9.67;;;;;;;;;;5076570;28;20185;-75
2021/03/03 00:45:21;;;;;;;15.50;9.90;;;;;;;;;;5075347;28;20208;-76
2021/03/03 00:47:47;;;;;;;14.70;9.60;;;;;;;;;;5075081;28;20255;-75
2021/03/03 00:50:13;;;;;;;15.43;9.10;;;;;;;;;;5058257;28;20181;-75
2021/03/03 00:52:39;;;;;;;15.70;10.10;;;;;;;;;;5075742;28;20211;-77
2021/03/03 00:55:05;;;;;;;14.60;9.53;;;;;;;;;;5076369;28;20183;-75
2021/03/03 00:57:31;;;;;;;14.17;9.37;;;;;;;;;;5076634;28;20233;-76
2021/03/03 00:59:57;;;;;;;16.00;9.97;;;;;;;;;;5058378;28;20183;-77
2021/03/03 01:02:23;;;;;;;14.87;9.67;;;;;;;;;;5058667;28;20188;-75
2021/03/03 01:04:49;;;;;;;15.10;9.77;;;;;;;;;;5074965;28;20215;-74
2021/03/03 01:07:15;;;;;;;16.47;9.73;;;;;;;;;;5058559;28;20208;-75
2021/03/03 01:09:41;;;;;;;17.10;10.13;;;;;;;;;;5074705;28;20263;-76
2021/03/03 01:12:07;;;;;;;16.83;9.80;;;;;;;;;;5074880;28;20180;-75
2021/03/03 01:14:33;;;;;;;15.97;10.07;;;;;;;;;;5081531;28;20177;-74
2021/03/03 01:16:59;;;;;;;13.17;9.13;;;;;;;;;;5075613;28;20242;-76
2021/03/03 01:19:25;;;;;;;16.77;10.00;;;;;;;;;;5075546;28;20180;-74
2021/03/03 01:21:51;;;;;;;14.60;9.53;;;;;;;;;;5074662;28;20557;-75
2021/03/03 01:24:17;;;;;;;14.97;9.13;;;;;;;;;;5073670;28;20607;-77
2021/03/03 01:26:43;;;;;;;12.40;8.30;;;;;;;;;;5073380;28;20243;-77
2021/03/03 01:29:09;;;;;;;15.70;9.87;;;;;;;;;;5075608;28;20174;-76
2021/03/03 01:31:35;;;;;;;14.77;9.70;;;;;;;;;;5057015;28;20185;-76
2021/03/03 01:34:01;;;;;;;14.40;9.10;;;;;;;;;;5074270;28;20223;-78
2021/03/03 01:36:27;;;;;;;13.83;8.70;;;;;;;;;;5072869;28;20200;-77
2021/03/03 01:38:53;;;;;;;14.50;8.77;;;;;;;;;;5073355;28;20181;-76
2021/03/03 01:41:19;;;;;;;13.33;8.67;;;;;;;;;;5073582;28;20286;-77
2021/03/03 01:43:45;;;;;;;16.33;9.10;;;;;;;;;;5073716;28;20207;-76
2021/03/03 01:46:10;;;;;;;14.37;8.80;;;;;;;;;;5073122;28;20241;-76
2021/03/03 01:48:36;;;;;;;12.53;8.63;;;;;;;;;;5073149;28;20665;-78
2021/03/03 01:51:02;;;;;;;19.13;9.20;;;;;;;;;;5074124;28;20173;-76
2021/03/03 01:53:31;;;;;;;16.93;9.00;;;;;;;;;;5072798;28;20181;-75
2021/03/03 01:55:57;;;;;;;13.87;8.50;;;;;;;;;;5074746;28;20188;-76
2021/03/03 01:58:23;;;;;;;14.10;8.47;;;;;;;;;;5056587;28;20553;-76
2021/03/03 02:00:50;;;;;;;16.23;8.57;;;;;;;;;;5073150;28;20263;-77
2021/03/03 02:03:17;;;;;;;13.13;8.53;;;;;;;;;;5073270;28;20410;-77
2021/03/03 02:05:43;;;;;;;16.37;8.97;;;;;;;;;;5074957;28;20235;-77
2021/03/03 02:08:12;;;;;;;13.03;8.73;;;;;;;;;;5056129;28;20204;-74
2021/03/03 02:10:44;;;;;;;14.60;8.97;;;;;;;;;;5073382;28;20597;-75
2021/03/03 02:13:21;;;;;;;13.47;8.70;;;;;;;;;;5075247;28;20175;-77
2021/03/03 02:15:47;;;;;;;14.53;8.60;;;;;;;;;;5074320;28;20640;-79
2021/03/03 02:18:13;;;;;;;13.27;9.00;;;;;;;;;;5072433;28;20275;-79
2021/03/03 02:20:48;;;;;;;13.87;9.10;;;;;;;;;;5072776;28;20677;-78
2021/03/03 02:23:15;;;;;;;14.13;8.80;;;;;;;;;;5072601;28;20253;-78
2021/03/03 02:25:41;;;;;;;13.43;8.87;;;;;;;;;;5072814;28;20619;-77
2021/03/03 02:28:07;;;;;;;17.87;9.43;;;;;;;;;;5072338;28;20672;-76
2021/03/03 02:30:33;;;;;;;13.83;8.30;;;;;;;;;;5072536;28;20553;-78
2021/03/03 02:32:59;;;;;;;14.63;9.17;;;;;;;;;;5054634;28;20187;-77
2021/03/03 02:35:25;;;;;;;14.10;8.93;;;;;;;;;;5054553;28;20184;-76
2021/03/03 02:37:51;;;;;;;12.07;8.40;;;;;;;;;;5055587;28;20630;-79
2021/03/03 02:40:17;;;;;;;13.47;8.90;;;;;;;;;;5074245;28;20206;-80
2021/03/03 02:42:43;;;;;;;12.87;8.87;;;;;;;;;;5074376;28;20183;-79
2021/03/03 02:45:10;;;;;;;14.77;9.77;;;;;;;;;;5073902;28;20643;-78
2021/03/03 02:47:36;;;;;;;19.17;9.07;;;;;;;;;;5074496;28;20200;-80
2021/03/03 02:50:02;;;;;;;15.20;8.60;;;;;;;;;;5073869;28;20184;-80
2021/03/03 02:52:28;;;;;;;13.63;9.07;;;;;;;;;;5073340;28;20208;-80
2021/03/03 02:54:55;;;;;;;14.80;8.97;;;;;;;;;;5073837;28;20194;-80
2021/03/03 02:57:21;;;;;;;14.50;9.27;;;;;;;;;;5074590;28;20743;-80
2021/03/03 02:59:47;;;;;;;13.97;8.93;;;;;;;;;;5075300;28;20185;-78
2021/03/03 03:02:13;;;;;;;12.67;8.87;;;;;;;;;;5075815;28;20212;-76
2021/03/03 03:04:42;;;;;;;13.73;9.13;;;;;;;;;;5075043;28;20201;-78
2021/03/03 03:07:09;;;;;;;19.23;10.27;;;;;;;;;;5056454;28;20208;-77
2021/03/03 03:09:35;;;;;;;15.40;9.70;;;;;;;;;;5072952;28;20842;-76
2021/03/03 03:12:01;;;;;;;14.10;9.33;;;;;;;;;;5073164;28;20278;-76
2021/03/03 03:14:27;;;;;;;16.43;9.27;;;;;;;;;;5056585;28;20238;-78
2021/03/03 03:16:53;;;;;;;17.27;9.63;;;;;;;;;;5094643;23;20445;-78
2021/03/03 03:19:19;;;;;;;13.50;9.43;;;;;;;;;;5073100;28;20229;-77
2021/03/03 03:21:46;;;;;;;14.43;9.23;;;;;;;;;;5073189;28;20180;-79
2021/03/03 03:24:13;;;;;;;19.60;10.00;;;;;;;;;;5056245;28;20208;-78
2021/03/03 03:26:39;;;;;;;15.87;9.93;;;;;;;;;;5073135;28;20194;-78
2021/03/03 03:29:07;;;;;;;16.07;9.20;;;;;;;;;;5072931;28;20182;-78
2021/03/03 03:31:33;;;;;;;17.07;9.27;;;;;;;;;;5055802;28;20178;-77
2021/03/03 03:33:59;;;;;;;14.80;9.00;;;;;;;;;;5074568;28;20190;-77
2021/03/03 03:36:27;;;;;;;14.87;8.97;;;;;;;;;;5058920;28;20675;-77
2021/03/03 03:38:53;;;;;;;14.47;8.97;;;;;;;;;;5058271;28;20248;-77
2021/03/03 03:41:20;;;;;;;14.60;9.80;;;;;;;;;;5074456;28;20621;-77
2021/03/03 03:43:46;;;;;;;17.90;9.70;;;;;;;;;;5074848;28;20575;-76
2021/03/03 03:46:12;;;;;;;20.13;9.90;;;;;;;;;;5057295;28;20187;-77
2021/03/03 03:48:39;;;;;;;15.87;9.57;;;;;;;;;;5057896;28;20635;-78
2021/03/03 03:51:06;;;;;;;17.27;9.97;;;;;;;;;;5059507;28;20242;-77
2021/03/03 03:53:32;;;;;;;14.77;9.33;;;;;;;;;;5075560;28;20172;-78
2021/03/03 03:55:58;;;;;;;15.03;9.23;;;;;;;;;;5058186;28;20640;-77
2021/03/03 03:58:25;;;;;;;16.37;9.70;;;;;;;;;;5075134;28;20569;-78
2021/03/03 04:00:52;;;;;;;14.63;9.33;;;;;;;;;;5058862;28;20174;-78
2021/03/03 04:03:19;;;;;;;15.20;9.93;;;;;;;;;;5059376;28;20178;-78
2021/03/03 04:05:45;;;;;;;13.67;9.27;;;;;;;;;;5076700;28;20721;-78
2021/03/03 04:08:10;;;;;;;16.47;10.10;;;;;;;;;;5059198;28;20696;-77
2021/03/03 04:10:37;;;;;;;15.10;9.37;;;;;;;;;;5058980;28;20182;-78
2021/03/03 04:13:02;;;;;;;14.30;9.40;;;;;;;;;;5059130;28;20174;-77
2021/03/03 04:15:29;;;;;;;15.00;9.27;;;;;;;;;;5059538;28;20547;-77
2021/03/03 04:17:56;;;;;;;15.90;9.60;;;;;;;;;;5058576;28;20276;-78
2021/03/03 04:20:23;;;;;;;15.00;9.73;;;;;;;;;;5075239;28;20185;-78
2021/03/03 04:22:49;;;;;;;16.37;9.83;;;;;;;;;;5074759;28;20184;-77
2021/03/03 04:25:17;;;;;;;19.73;11.00;;;;;;;;;;5075133;28;20207;-78
2021/03/03 04:27:43;;;;;;;16.10;10.27;;;;;;;;;;5075000;28;20204;-77
2021/03/03 04:30:10;;;;;;;14.57;9.70;;;;;;;;;;5058025;28;20204;-77
2021/03/03 04:32:37;;;;;;;15.60;9.67;;;;;;;;;;5058400;28;20269;-78
2021/03/03 04:35:04;;;;;;;13.07;9.37;;;;;;;;;;5074899;28;20173;-77
2021/03/03 04:37:31;;;;;;;15.17;9.57;;;;;;;;;;5058571;28;20216;-78
2021/03/03 04:39:57;;;;;;;14.50;9.80;;;;;;;;;;5057412;28;20192;-77
2021/03/03 04:42:23;;;;;;;15.13;9.90;;;;;;;;;;5058074;28;20223;-78
2021/03/03 04:44:49;;;;;;;15.10;9.40;;;;;;;;;;5058185;28;20573;-77
2021/03/03 04:47:15;;;;;;;13.37;10.17;;;;;;;;;;5058330;28;20664;-78
2021/03/03 04:49:41;;;;;;;16.10;10.77;;;;;;;;;;5058306;28;20206;-77
2021/03/03 04:52:07;;;;;;;17.17;10.63;;;;;;;;;;5074514;28;20180;-77
2021/03/03 04:54:34;;;;;;;17.13;11.00;;;;;;;;;;5058425;28;20284;-77
2021/03/03 04:57:01;;;;;;;15.57;10.40;;;;;;;;;;5057560;28;20208;-77
2021/03/03 04:59:26;;;;;;;18.20;10.47;;;;;;;;;;5057657;28;20191;-78
2021/03/03 05:01:53;;;;;;;15.00;9.73;;;;;;;;;;5056658;28;20192;-78
2021/03/03 05:04:19;;;;;;;15.57;10.03;;;;;;;;;;5073975;28;20299;-77
2021/03/03 05:06:45;;;;;;;16.53;10.47;;;;;;;;;;5057718;28;20199;-78
2021/03/03 05:09:11;;;;;;;14.77;9.90;;;;;;;;;;5074758;28;20176;-77
2021/03/03 05:11:37;;;;;;;15.73;10.13;;;;;;;;;;5057390;28;20188;-78
2021/03/03 05:14:03;;;;;;;14.67;10.13;;;;;;;;;;5074760;28;20635;-77
2021/03/03 05:16:29;;;;;;;14.70;9.90;;;;;;;;;;5057697;28;20184;-77
2021/03/03 05:18:56;;;;;;;13.73;9.57;;;;;;;;;;5074327;28;20244;-78
2021/03/03 05:21:22;;;;;;;16.10;10.47;;;;;;;;;;5057262;28;20183;-78
2021/03/03 05:23:47;;;;;;;18.37;10.83;;;;;;;;;;5057511;28;20206;-77
2021/03/03 05:26:13;;;;;;;17.93;10.50;;;;;;;;;;5074305;28;20176;-78
2021/03/03 05:28:40;;;;;;;18.83;10.00;;;;;;;;;;5056522;28;20204;-78
2021/03/03 05:31:06;;;;;;;15.50;10.27;;;;;;;;;;5056821;28;20183;-77
2021/03/03 05:33:33;;;;;;;17.43;10.50;;;;;;;;;;5072970;28;20631;-78
2021/03/03 05:36:00;;;;;;;15.93;9.93;;;;;;;;;;5072664;28;20203;-78
2021/03/03 05:38:26;;;;;;;14.70;9.73;;;;;;;;;;5055555;28;20207;-78
2021/03/03 05:40:52;;;;;;;16.23;10.17;;;;;;;;;;5056300;28;20188;-78
2021/03/03 05:43:18;;;;;;;15.33;9.97;;;;;;;;;;5056215;28;20232;-77
2021/03/03 05:45:45;;;;;;;16.00;10.30;;;;;;;;;;5072655;28;20210;-77
2021/03/03 05:48:24;;;;;;;15.67;9.47;;;;;;;;;;5072572;28;20195;-77
2021/03/03 05:50:57;;;;;;;14.30;9.17;;;;;;;;;;5072677;28;20390;-78
2021/03/03 05:53:23;;;;;;;14.10;10.10;;;;;;;;;;5056111;28;20241;-78
2021/03/03 05:55:50;;;;;;;18.00;10.10;;;;;;;;;;5055869;28;20196;-78
2021/03/03 05:58:16;;;;;;;16.53;9.67;;;;;;;;;;5055562;28;20205;-78
2021/03/03 06:00:42;;;;;;;15.43;9.07;;;;;;;;;;5055646;28;20632;-78
2021/03/03 06:03:08;;;;;;;14.23;9.40;;;;;;;;;;5055063;28;20187;-77
2021/03/03 06:05:37;;;;;;;13.83;9.13;;;;;;;;;;5070107;28;20250;-78
2021/03/03 06:08:03;;;;;;;18.67;10.43;;;;;;;;;;5071081;28;20223;-78
2021/03/03 06:10:29;;;;;;;16.97;10.57;;;;;;;;;;5062599;28;20252;-78
2021/03/03 06:12:55;;;;;;;16.37;10.30;;;;;;;;;;5072873;28;20197;-77
2021/03/03 06:15:21;;;;;;;16.60;10.90;;;;;;;;;;5075013;28;20237;-78
2021/03/03 06:17:47;;;;;;;16.90;10.90;;;;;;;;;;5058083;28;20231;-78
2021/03/03 06:20:13;;;;;;;26.27;12.40;;;;;;;;;;5055452;28;20180;-78
2021/03/03 06:22:39;;;;;;;23.27;13.10;;;;;;;;;;5047393;28;20192;-78
2021/03/03 06:25:25;;;;;;;19.80;13.17;;;;;;;;;;5075342;28;20267;-78
2021/03/03 06:27:51;;;;;;;21.43;13.90;;;;;;;;;;5070443;28;20225;-78
2021/03/03 06:30:18;;;;;;;19.27;13.50;;;;;;;;;;5059597;28;20710;-78
2021/03/03 06:32:50;;;;;;;22.43;13.77;;;;;;;;;;5055987;28;20182;-78
2021/03/03 06:35:17;;;;;;;21.60;12.13;;;;;;;;;;5056311;28;20359;-78
2021/03/03 06:37:53;;;;;;;22.07;12.80;;;;;;;;;;5056810;28;20202;-78
2021/03/03 06:40:19;;;;;;;18.37;12.63;;;;;;;;;;5057837;28;20192;-78
2021/03/03 06:42:45;;;;;;;19.67;12.77;;;;;;;;;;5058294;28;20222;-78
2021/03/03 06:45:11;;;;;;;18.30;11.63;;;;;;;;;;5055672;28;20217;-77
2021/03/03 06:47:47;;;;;;;21.17;11.27;;;;;;;;;;5054783;28;20231;-77
2021/03/03 06:50:13;;;;;;;19.50;12.03;;;;;;;;;;5070479;28;20216;-76
2021/03/03 06:52:40;;;;;;;19.00;11.33;;;;;;;;;;5071490;28;20554;-77
2021/03/03 06:55:06;;;;;;;18.57;10.40;;;;;;;;;;5058544;28;20205;-76
2021/03/03 06:57:32;;;;;;;18.80;11.43;;;;;;;;;;5054739;28;20210;-77
2021/03/03 06:59:58;;;;;;;16.57;10.37;;;;;;;;;;5067753;28;20234;-79
2021/03/03 07:02:29;;;;;;;17.17;10.60;;;;;;;;;;5057249;28;20188;-79
2021/03/03 07:04:56;;;;;;;21.17;11.47;;;;;;;;;;5056886;28;20200;-79
2021/03/03 07:07:22;;;;;;;18.50;11.27;;;;;;;;;;5053764;28;20198;-78
2021/03/03 07:09:58;;;;;;;19.37;11.27;;;;;;;;;;5046921;28;20230;-78
2021/03/03 07:12:29;;;;;;;18.10;11.17;;;;;;;;;;5057798;28;20637;-79
2021/03/03 07:14:57;;;;;;;19.27;11.67;;;;;;;;;;5057546;28;20550;-80
2021/03/03 07:17:23;;;;;;;20.87;11.87;;;;;;;;;;5073477;28;20209;-78
2021/03/03 07:19:53;;;;;;;20.33;11.77;;;;;;;;;;5053546;28;20188;-77
2021/03/03 07:22:25;;;;;;;19.67;10.20;;;;;;;;;;5055783;28;20289;-80
2021/03/03 07:24:51;;;;;;;18.27;11.63;;;;;;;;;;5073883;28;20210;-78
2021/03/03 07:27:18;;;;;;;21.70;11.90;;;;;;;;;;5048110;28;20287;-78
2021/03/03 07:29:45;;;;;;;22.67;10.97;;;;;;;;;;5056733;28;20249;-80
2021/03/03 07:32:11;;;;;;;16.93;10.67;;;;;;;;;;5055004;28;20630;-81
2021/03/03 07:34:37;;;;;;;21.73;11.70;;;;;;;;;;5073281;28;20180;-78
2021/03/03 07:37:03;;;;;;;22.53;10.67;;;;;;;;;;5056236;28;20327;-74
2021/03/03 07:39:29;;;;;;;21.17;10.40;;;;;;;;;;5048183;28;20234;-76
2021/03/03 07:41:55;;;;;;;21.43;10.57;;;;;;;;;;5063989;28;20272;-76
2021/03/03 07:44:21;;;;;;;18.40;10.50;;;;;;;;;;5070613;28;20201;-75
2021/03/03 07:46:48;;;;;;;15.83;10.37;;;;;;;;;;5057488;28;20231;-76
2021/03/03 07:49:14;;;;;;;20.33;10.30;;;;;;;;;;5073028;28;20671;-78
2021/03/03 07:51:43;;;;;;;19.87;10.87;;;;;;;;;;5072925;28;20172;-79
2021/03/03 07:54:12;;;;;;;21.27;11.20;;;;;;;;;;5072458;28;20238;-79
2021/03/03 07:56:39;;;;;;;17.97;10.30;;;;;;;;;;5056176;28;20213;-78
2021/03/03 07:59:05;;;;;;;20.60;10.40;;;;;;;;;;5072565;28;20184;-78
2021/03/03 08:01:31;;;;;;;19.63;10.90;;;;;;;;;;5056217;28;20186;-78
2021/03/03 08:03:57;;;;;;;16.03;10.77;;;;;;;;;;5052053;28;20205;-77
2021/03/03 08:06:28;;;;;;;16.73;10.37;;;;;;;;;;5052404;28;20172;-78
2021/03/03 08:09:07;;;;;;;21.20;10.97;;;;;;;;;;5035722;28;20561;-78
2021/03/03 08:11:33;;;;;;;18.37;10.33;;;;;;;;;;5071704;28;20191;-78
2021/03/03 08:13:59;;;;;;;15.77;10.00;;;;;;;;;;5055648;28;20190;-80
2021/03/03 08:16:25;;;;;;;18.27;10.57;;;;;;;;;;5072132;28;20212;-83
2021/03/03 08:18:57;;;;;;;24.57;11.13;;;;;;;;;;5072475;28;20173;-79
2021/03/03 08:21:23;;;;;;;17.23;10.10;;;;;;;;;;5072501;28;20607;-81
2021/03/03 08:23:50;;;;;;;18.17;10.90;;;;;;;;;;5071969;28;20181;-79
2021/03/03 08:26:16;;;;;;;21.50;11.10;;;;;;;;;;5072664;28;20178;-77
2021/03/03 08:28:48;;;;;;;19.53;10.87;;;;;;;;;;5071736;28;20209;-78
2021/03/03 08:31:18;;;;;;;20.13;11.23;;;;;;;;;;5073338;28;20193;-78
2021/03/03 08:33:44;;;;;;;18.30;10.97;;;;;;;;;;5073296;28;20502;-79
2021/03/03 08:36:31;;;;;;;18.93;10.90;;;;;;;;;;5055201;28;20273;-78
2021/03/03 08:38:57;;;;;;;20.90;10.77;;;;;;;;;;5071276;28;20632;-78
2021/03/03 08:41:25;;;;;;;19.10;11.47;;;;;;;;;;5071470;28;20184;-76
2021/03/03 08:43:59;;;;;;;21.37;11.07;;;;;;;;;;5073332;28;20248;-79
2021/03/03 08:46:25;;;;;;;18.53;11.13;;;;;;;;;;5056583;28;20215;-79
2021/03/03 08:48:54;;;;;;;18.13;11.80;;;;;;;;;;5075665;28;20670;-79
2021/03/03 08:51:29;;;;;;;18.53;11.73;;;;;;;;;;5075000;28;20260;-79
2021/03/03 08:53:59;;;;;;;20.97;11.97;;;;;;;;;;5074255;28;20196;-79
2021/03/03 08:56:37;;;;;;;23.37;11.37;;;;;;;;;;5055983;28;20178;-79
2021/03/03 08:59:13;;;;;;;26.10;11.80;;;;;;;;;;5074898;28;20190;-80
2021/03/03 09:01:58;;;;;;;17.90;11.77;;;;;;;;;;5075139;28;20178;-79
2021/03/03 09:04:25;;;;;;;27.63;11.53;;;;;;;;;;5071815;28;20234;-76
2021/03/03 09:06:52;;;;;;;20.90;11.13;;;;;;;;;;5075665;28;20197;-78
2021/03/03 09:09:18;;;;;;;19.00;10.83;;;;;;;;;;5074872;28;20303;-78
2021/03/03 09:11:45;;;;;;;21.13;11.07;;;;;;;;;;5059476;28;20182;-78
2021/03/03 09:14:11;;;;;;;22.67;11.33;;;;;;;;;;5060242;28;20390;-79
2021/03/03 09:16:57;;;;;;;21.20;11.13;;;;;;;;;;5077055;28;20176;-78
2021/03/03 09:19:23;;;;;;;19.07;10.63;;;;;;;;;;5075515;28;20262;-80
2021/03/03 09:21:49;;;;;;;20.27;10.50;;;;;;;;;;5056686;28;20203;-79
2021/03/03 09:24:15;;;;;;;19.90;10.90;;;;;;;;;;5058602;28;20204;-78
2021/03/03 09:26:43;;;;;;;19.57;10.80;;;;;;;;;;5053528;28;20213;-79
2021/03/03 09:29:23;;;;;;;22.67;10.77;;;;;;;;;;5054460;28;20216;-79
2021/03/03 09:31:49;;;;;;;20.30;11.03;;;;;;;;;;5056620;28;20602;-80
2021/03/03 09:34:18;;;;;;;21.17;10.90;;;;;;;;;;5057989;28;20204;-78
2021/03/03 09:36:53;;;;;;;23.67;10.47;;;;;;;;;;5054980;28;20200;-78
2021/03/03 09:39:20;;;;;;;20.30;10.47;;;;;;;;;;5070592;28;20230;-79
2021/03/03 09:41:53;;;;;;;23.03;10.87;;;;;;;;;;5061173;28;20189;-78
2021/03/03 09:44:19;;;;;;;16.57;9.57;;;;;;;;;;5073023;28;20658;-79
2021/03/03 09:46:55;;;;;;;27.43;10.83;;;;;;;;;;5073686;28;20258;-78
2021/03/03 09:49:24;;;;;;;19.80;10.63;;;;;;;;;;5071964;28;20180;-78
2021/03/03 09:51:50;;;;;;;22.53;11.13;;;;;;;;;;5070653;28;20189;-79
2021/03/03 09:54:26;;;;;;;18.77;10.67;;;;;;;;;;5055385;28;20187;-79
2021/03/03 09:56:52;;;;;;;20.90;11.20;;;;;;;;;;5071300;28;20215;-80
2021/03/03 09:59:18;;;;;;;19.60;11.40;;;;;;;;;;5054728;28;20263;-78
2021/03/03 10:01:44;;;;;;;21.60;10.87;;;;;;;;;;5071395;28;20196;-80
2021/03/03 10:04:10;;;;;;;22.50;10.40;;;;;;;;;;5071217;28;20223;-80
2021/03/03 10:06:36;;;;;;;22.57;11.63;;;;;;;;;;5070923;28;20180;-78
2021/03/03 10:09:03;;;;;;;20.77;10.90;;;;;;;;;;5054409;28;20184;-80
2021/03/03 10:11:28;;;;;;;19.20;11.30;;;;;;;;;;5071486;28;20264;-80
2021/03/03 10:14:08;;;;;;;21.73;11.57;;;;;;;;;;5071126;28;20258;-80
2021/03/03 10:16:34;;;;;;;24.40;12.67;;;;;;;;;;5054534;28;20183;-78
2021/03/03 10:19:08;;;;;;;22.93;12.63;;;;;;;;;;5053951;28;20181;-78
2021/03/03 10:21:37;;;;;;;24.47;13.80;;;;;;;;;;5054242;28;20556;-79
2021/03/03 10:24:19;;;;;;;21.43;13.47;;;;;;;;;;5054867;28;20666;-79
2021/03/03 10:26:46;;;;;;;28.47;14.73;;;;;;;;;;5079062;28;20230;-79
2021/03/03 10:29:13;;;;;;;26.57;14.50;;;;;;;;;;5077915;28;20179;-79
2021/03/03 10:31:39;;;;;;;27.47;14.40;;;;;;;;;;5061229;28;20180;-80
2021/03/03 10:34:10;;;;;;;30.07;14.67;;;;;;;;;;5077350;28;20642;-78
2021/03/03 10:36:39;;;;;;;31.00;15.10;;;;;;;;;;5062935;28;20569;-79
2021/03/03 10:39:05;;;;;;;28.27;15.37;;;;;;;;;;5062628;28;20280;-80
2021/03/03 10:41:33;;;;;;;28.40;14.87;;;;;;;;;;5062809;28;20188;-79
2021/03/03 10:43:59;;;;;;;30.73;15.13;;;;;;;;;;5061847;28;20265;-78
2021/03/03 10:46:26;;;;;;;25.93;14.43;;;;;;;;;;5062293;28;20235;-80
2021/03/03 10:48:52;;;;;;;24.27;14.33;;;;;;;;;;5080238;28;20180;-79
2021/03/03 10:51:19;;;;;;;30.53;14.87;;;;;;;;;;5079471;28;20184;-79
2021/03/03 10:53:53;;;;;;;26.53;14.40;;;;;;;;;;5081616;28;20184;-80
2021/03/03 10:56:19;;;;;;;27.57;14.60;;;;;;;;;;5062414;28;20667;-81
2021/03/03 10:58:45;;;;;;;29.50;15.40;;;;;;;;;;5073541;28;20219;-82
2021/03/03 11:01:11;;;;;;;29.33;15.93;;;;;;;;;;5060370;28;20185;-80
2021/03/03 11:03:59;;;;;;;32.87;16.43;;;;;;;;;;5059817;28;20185;-81
2021/03/03 11:06:30;;;;;;;27.33;14.87;;;;;;;;;;5049141;28;20211;-81
2021/03/03 11:08:56;;;;;;;30.90;17.17;;;;;;;;;;5039168;28;20266;-79
2021/03/03 11:11:23;;;;;;;33.43;17.20;;;;;;;;;;5071899;28;20679;-78
2021/03/03 11:13:49;;;;;;;35.93;18.70;;;;;;;;;;5057540;28;20272;-80
2021/03/03 11:16:14;;;;;;;29.07;17.53;;;;;;;;;;5058860;28;20201;-80
2021/03/03 11:18:41;;;;;;;38.00;18.47;;;;;;;;;;5058107;28;20311;-82
2021/03/03 11:21:08;;;;;;;36.50;20.30;;;;;;;;;;5059587;28;20617;-81
2021/03/03 11:23:33;;;;;;;33.53;19.33;;;;;;;;;;5058451;28;20185;-82
2021/03/03 11:26:00;;;;;;;32.97;20.53;;;;;;;;;;5070684;28;20219;-81
2021/03/03 11:28:26;;;;;;;38.90;20.73;;;;;;;;;;5055061;28;20197;-81
2021/03/03 11:30:53;;;;;;;42.67;20.73;;;;;;;;;;5064027;28;20178;-81
2021/03/03 11:33:18;;;;;;;35.57;21.97;;;;;;;;;;5058820;28;20609;-82
2021/03/03 11:35:44;;;;;;;40.43;23.40;;;;;;;;;;5055815;28;20215;-80
2021/03/03 11:38:11;;;;;;;43.50;23.90;;;;;;;;;;5069391;28;20284;-81
2021/03/03 11:40:37;;;;;;;45.87;23.03;;;;;;;;;;5056152;28;20188;-81
2021/03/03 11:43:03;;;;;;;36.67;23.07;;;;;;;;;;5056345;28;20177;-81
2021/03/03 11:45:29;;;;;;;41.70;23.73;;;;;;;;;;5059696;28;20213;-82
2021/03/03 11:47:55;;;;;;;39.27;22.43;;;;;;;;;;5051061;28;20234;-82
2021/03/03 11:50:21;;;;;;;43.63;22.63;;;;;;;;;;5055805;28;20186;-81
2021/03/03 11:52:47;;;;;;;40.10;23.47;;;;;;;;;;5038830;28;20177;-80
2021/03/03 11:55:13;;;;;;;41.73;24.17;;;;;;;;;;5040368;28;20182;-81
2021/03/03 11:57:39;;;;;;;39.10;23.20;;;;;;;;;;5059257;28;20209;-81
2021/03/03 12:00:06;;;;;;;41.37;23.60;;;;;;;;;;5075436;28;20235;-81
2021/03/03 12:02:32;;;;;;;37.10;22.63;;;;;;;;;;5074855;28;20185;-79
2021/03/03 12:04:58;;;;;;;41.10;23.30;;;;;;;;;;5057078;28;20239;-80
2021/03/03 12:07:24;;;;;;;40.93;23.80;;;;;;;;;;5073733;28;20276;-80
2021/03/03 12:09:50;;;;;;;38.93;24.10;;;;;;;;;;5073347;28;20173;-80
2021/03/03 12:12:16;;;;;;;40.60;23.00;;;;;;;;;;5056901;28;20199;-81
2021/03/03 12:14:43;;;;;;;43.77;23.90;;;;;;;;;;5073691;28;20651;-80
2021/03/03 12:17:09;;;;;;;40.43;22.97;;;;;;;;;;5055459;28;20213;-80
2021/03/03 12:19:36;;;;;;;40.17;22.17;;;;;;;;;;5066411;28;20264;-79
2021/03/03 12:22:02;;;;;;;41.60;22.53;;;;;;;;;;5036309;28;20651;-80
2021/03/03 12:24:28;;;;;;;40.33;22.93;;;;;;;;;;5064156;28;20320;-79
2021/03/03 12:26:54;;;;;;;42.53;24.03;;;;;;;;;;5056134;28;20209;-79
2021/03/03 12:29:20;;;;;;;39.87;22.67;;;;;;;;;;5072629;28;20242;-78
2021/03/03 12:31:47;;;;;;;39.40;24.20;;;;;;;;;;5074584;28;20726;-78
2021/03/03 12:34:13;;;;;;;44.27;23.83;;;;;;;;;;5056680;28;20182;-79
2021/03/03 12:36:39;;;;;;;39.70;24.33;;;;;;;;;;5056426;28;20557;-79
2021/03/03 12:39:05;;;;;;;39.00;24.40;;;;;;;;;;5073241;28;20184;-79
2021/03/03 12:41:31;;;;;;;42.60;24.77;;;;;;;;;;5053633;28;20178;-78
2021/03/03 12:43:58;;;;;;;41.83;25.30;;;;;;;;;;5052423;28;20236;-79
2021/03/03 12:46:23;;;;;;;41.70;24.03;;;;;;;;;;5035199;28;20202;-79
2021/03/03 12:48:50;;;;;;;45.20;26.50;;;;;;;;;;5035657;28;20682;-78
2021/03/03 12:51:16;;;;;;;40.33;24.17;;;;;;;;;;5036077;28;20265;-79
2021/03/03 12:53:42;;;;;;;45.47;26.03;;;;;;;;;;5036007;28;20285;-79
2021/03/03 12:56:08;;;;;;;45.50;25.77;;;;;;;;;;5035592;28;20224;-81
2021/03/03 12:58:34;;;;;;;39.23;25.67;;;;;;;;;;5052460;28;20194;-79
2021/03/03 13:01:00;;;;;;;41.80;27.07;;;;;;;;;;5052653;28;20178;-82
2021/03/03 13:03:26;;;;;;;47.37;30.07;;;;;;;;;;5041408;28;20207;-78
2021/03/03 13:05:52;;;;;;;53.30;30.90;;;;;;;;;;5045897;28;20274;-78
2021/03/03 13:08:18;;;;;;;50.50;31.90;;;;;;;;;;5051878;28;20201;-78
2021/03/03 13:10:44;;;;;;;53.93;32.47;;;;;;;;;;5071147;28;20181;-78
2021/03/03 13:13:10;;;;;;;52.73;32.47;;;;;;;;;;5046707;28;20869;-78
2021/03/03 13:15:36;;;;;;;51.23;32.77;;;;;;;;;;5051695;28;20196;-78
2021/03/03 13:18:02;;;;;;;51.33;31.90;;;;;;;;;;5034989;28;20221;-79
2021/03/03 13:20:28;;;;;;;49.13;31.93;;;;;;;;;;5036093;28;20189;-79
2021/03/03 13:22:55;;;;;;;45.90;30.43;;;;;;;;;;5069025;28;20182;-79
2021/03/03 13:25:21;;;;;;;50.00;30.67;;;;;;;;;;5056396;28;20208;-78
2021/03/03 13:27:47;;;;;;;45.70;30.17;;;;;;;;;;5055451;28;20190;-78
2021/03/03 13:30:14;;;;;;;53.60;31.07;;;;;;;;;;5040522;28;20620;-77
2021/03/03 13:32:40;;;;;;;48.03;31.03;;;;;;;;;;5054746;28;20630;-77
2021/03/03 13:35:07;;;;;;;49.30;31.70;;;;;;;;;;5060932;28;20280;-78
2021/03/03 13:37:33;;;;;;;50.80;29.83;;;;;;;;;;5078643;28;20712;-78
2021/03/03 13:39:59;;;;;;;49.93;31.43;;;;;;;;;;5061871;28;20185;-77
2021/03/03 13:42:25;;;;;;;50.67;30.30;;;;;;;;;;5079146;28;20185;-78
2021/03/03 13:44:52;;;;;;;48.47;31.10;;;;;;;;;;5056331;28;20207;-77
2021/03/03 13:47:18;;;;;;;50.57;32.33;;;;;;;;;;5054407;28;20190;-77
2021/03/03 13:49:44;;;;;;;52.93;31.97;;;;;;;;;;5053903;28;20553;-78
2021/03/03 13:52:10;;;;;;;58.37;33.57;;;;;;;;;;5051220;28;20179;-78
2021/03/03 13:54:36;;;;;;;55.13;34.43;;;;;;;;;;5052714;28;20186;-78
2021/03/03 13:57:06;;;;;;;56.13;33.67;;;;;;;;;;5072929;28;20326;-78
2021/03/03 13:59:32;;;;;;;50.23;32.70;;;;;;;;;;5069705;28;20192;-78
2021/03/03 14:01:57;;;;;;;53.13;33.67;;;;;;;;;;5055043;28;20170;-78
2021/03/03 14:04:24;;;;;;;52.67;34.93;;;;;;;;;;5053152;28;20200;-78
2021/03/03 14:06:51;;;;;;;52.13;35.00;;;;;;;;;;5056588;28;20241;-78
2021/03/03 14:09:17;;;;;;;51.90;34.00;;;;;;;;;;5072311;28;20223;-78
2021/03/03 14:11:43;;;;;;;48.07;32.47;;;;;;;;;;5055753;28;20179;-78
2021/03/03 14:14:09;;;;;;;58.13;33.13;;;;;;;;;;5055106;28;20202;-78
2021/03/03 14:16:35;;;;;;;49.07;32.30;;;;;;;;;;5055988;28;20190;-78
2021/03/03 14:19:01;;;;;;;54.63;30.50;;;;;;;;;;5051533;28;20185;-78
2021/03/03 14:21:27;;;;;;;52.93;33.90;;;;;;;;;;5056508;28;20192;-78